Svartfoss — V2PR3 — position and weather

sailwx.info

Track history (hours):
 
Tides and Currents Weather Stations Pressure Air Temp Water Temp Dewpoint Dewpoint Depression Visibility Wind Speed Wind Dir Waves Ship Positions

Svartfoss

Last reported at 2014-Dec-19 15:34 UTC. Time now 2014-Dec-19 20:19 UTC.
Position N 59°26' E 005°14'.

Length 80 m; draft 5.3 m.

Type: Cargo ship. MMSI: 304882000.

Date/timePositionNaut miles runAvg speedWind from/ knotsBaromVisibWave heightAir tempDewpointWater temp
2014-Dec-19 15:34N 59°26' E 005°14'6 6.3
2014-Dec-19 14:33N 59°20' E 005°18'6 5.7
2014-Dec-19 13:33N 59°15' E 005°20'1010.2
2014-Dec-19 12:33N 59°06' E 005°31'9 9.5
2014-Dec-19 11:34N 58°59' E 005°44'0 0.0
2014-Dec-19 10:34N 58°59' E 005°44'0 0.0
2014-Dec-19 09:34N 58°59' E 005°44'1 1.3
2014-Dec-19 08:33N 59°00' E 005°42'5 4.9
2014-Dec-19 07:33N 58°55' E 005°44'0 0.1
2014-Dec-19 06:34N 58°55' E 005°44'0 0.0
2014-Dec-19 05:34N 58°55' E 005°44'0 0.0
2014-Dec-19 04:34N 58°55' E 005°44'0 0.0
2014-Dec-19 03:34N 58°55' E 005°44'0 0.0
2014-Dec-19 02:34N 58°55' E 005°44'0 0.0
2014-Dec-19 01:34N 58°55' E 005°44'0 0.1
2014-Dec-19 00:34N 58°55' E 005°44'1 1.3
2014-Dec-18 23:34N 58°57' E 005°45'0 0.0
2014-Dec-18 22:34N 58°57' E 005°45'2 2.0
2014-Dec-18 21:33N 58°58' E 005°48'1010.5
2014-Dec-18 20:33N 58°60' E 005°28'1515.2
2014-Dec-18 19:33N 58°54' E 005°00'22115.4
2014-Dec-18 05:13N 57°33' W 001°30'914.1
2014-Dec-18 04:33N 57°30' W 001°47'0 0.2
2014-Dec-18 03:33N 57°30' W 001°47'0 0.0
2014-Dec-18 02:33N 57°30' W 001°47'0 0.0
2014-Dec-18 01:33N 57°30' W 001°47'3 3.4
2014-Dec-18 00:34N 57°27' W 001°45'2110.6
2014-Dec-17 22:33N 57°09' W 002°05'0 0.0
2014-Dec-17 21:33N 57°09' W 002°05'0 0.0
2014-Dec-17 20:33N 57°09' W 002°05'0 0.0
2014-Dec-17 19:34N 57°09' W 002°05'0 0.0
2014-Dec-17 18:33N 57°09' W 002°05'0 0.0
2014-Dec-17 17:33N 57°09' W 002°05'14212.9
2014-Dec-17 06:33N 54°57' W 000°30'1514.7
2014-Dec-17 05:32N 54°43' W 000°20'1515.0
2014-Dec-17 04:33N 54°29' W 000°10'1515.1
2014-Dec-17 03:34N 54°15' W 000°01'1515.1
2014-Dec-17 02:34N 54°01' E 000°08'1514.6
2014-Dec-17 01:33N 53°47' E 000°17'1312.8
2014-Dec-17 00:34N 53°35' E 000°18'1211.6
2014-Dec-16 23:33N 53°35' W 000°02'2 1.8
2014-Dec-16 22:33N 53°35' W 000°04'0 0.0
2014-Dec-16 21:33N 53°35' W 000°04'0 0.0
2014-Dec-16 20:33N 53°35' W 000°04'0 0.0
2014-Dec-16 19:33N 53°35' W 000°04'0 0.0
2014-Dec-16 18:33N 53°35' W 000°04'0 0.0
2014-Dec-16 17:33N 53°35' W 000°04'0 0.0
2014-Dec-16 16:33N 53°35' W 000°04'0 0.0
2014-Dec-16 15:33N 53°35' W 000°04'0 0.0
2014-Dec-16 14:33N 53°35' W 000°04'0 0.0
2014-Dec-16 13:33N 53°35' W 000°04'0 0.0
2014-Dec-16 12:33N 53°35' W 000°04'0 0.0
2014-Dec-16 11:33N 53°35' W 000°04'0 0.3
2014-Dec-16 10:33N 53°35' W 000°04'1010.0
2014-Dec-16 09:34N 53°33' E 000°12'8 7.9
2014-Dec-16 08:33N 53°29' E 000°24'5011.3
2014-Dec-16 04:09N 53°10' E 001°40'1412.9
2014-Dec-16 03:04N 53°03' E 002°01'7112.9
2014-Dec-15 21:33N 52°40' E 003°52'1212.0
2014-Dec-15 20:33N 52°33' E 004°08'1212.4
2014-Dec-15 19:33N 52°29' E 004°27'6 5.9
2014-Dec-15 18:33N 52°28' E 004°37'2 1.9
2014-Dec-15 17:31N 52°28' E 004°40'0 0.0
2014-Dec-15 16:31N 52°28' E 004°40'0 0.0
2014-Dec-15 15:31N 52°28' E 004°40'0 0.0
2014-Dec-15 14:31N 52°28' E 004°40'0 0.0
2014-Dec-15 13:31N 52°28' E 004°40'0 0.0
2014-Dec-15 12:31N 52°28' E 004°40'0 0.0
2014-Dec-15 11:31N 52°28' E 004°40'0 0.0
2014-Dec-15 10:28N 52°28' E 004°40'0 0.0
2014-Dec-15 09:33N 52°28' E 004°40'0 0.0
2014-Dec-15 08:33N 52°28' E 004°40'0 0.0
2014-Dec-15 07:33N 52°28' E 004°40'0 0.0
2014-Dec-15 06:33N 52°28' E 004°40'0 0.0
2014-Dec-15 05:33N 52°28' E 004°40'0 0.0
2014-Dec-15 04:33N 52°28' E 004°40'0 0.0
2014-Dec-15 03:33N 52°28' E 004°40'0 0.0
2014-Dec-15 02:33N 52°28' E 004°40'0 0.0
2014-Dec-15 01:33N 52°28' E 004°40'0 0.0
2014-Dec-15 00:33N 52°28' E 004°40'0 0.0
2014-Dec-14 23:33N 52°28' E 004°40'0 0.0
2014-Dec-14 22:33N 52°28' E 004°40'0 0.0
2014-Dec-14 21:33N 52°28' E 004°40'0 0.0
2014-Dec-14 20:33N 52°28' E 004°40'0 0.0
2014-Dec-14 19:33N 52°28' E 004°40'0 0.0
2014-Dec-14 18:33N 52°28' E 004°40'0 0.0
2014-Dec-14 17:33N 52°28' E 004°40'0 0.0
2014-Dec-14 16:33N 52°28' E 004°40'3 2.9
2014-Dec-14 15:33N 52°28' E 004°35'1111.2
2014-Dec-14 14:33N 52°39' E 004°29'1414.2
2014-Dec-14 13:33N 52°53' E 004°30'2612.1
2014-Dec-14 11:23N 53°19' E 004°31'1012.4
2014-Dec-14 10:33N 53°29' E 004°36'3112.8
2014-Dec-14 08:05N 53°59' E 004°51'28513.8
2014-Dec-13 11:23N 58°44' E 005°22'1112.8
2014-Dec-13 10:33N 58°54' E 005°32'1414.0
2014-Dec-13 09:34N 59°07' E 005°26'7 6.5
2014-Dec-13 08:33N 59°14' E 005°27'0 0.0
2014-Dec-13 07:32N 59°14' E 005°27'0 0.0
2014-Dec-13 06:33N 59°14' E 005°27'5 4.0
2014-Dec-13 05:24N 59°17' E 005°20'8 9.5
2014-Dec-13 04:33N 59°25' E 005°16'61 9.4
2014-Dec-12 22:04N 60°25' E 005°01'131 7.0
2014-Dec-12 03:25N 62°30' E 006°23'104 3.7
2014-Dec-10 23:31N 63°36' E 009°19'8013.1
2014-Dec-10 17:25N 64°44' E 010°56'1112.8
2014-Dec-10 16:33N 64°52' E 011°14'0 0.0
2014-Dec-10 15:33N 64°52' E 011°14'1211.6
2014-Dec-10 14:33N 64°59' E 011°35'1513.9
2014-Dec-10 13:29N 65°12' E 011°53'55 7.7
2014-Dec-10 06:19N 66°04' E 012°38'1513.9
2014-Dec-10 05:16N 66°17' E 012°55'1313.7
2014-Dec-10 04:20N 66°29' E 012°59'2812.8
2014-Dec-10 02:12N 66°54' E 013°28'812.4
2014-Dec-10 01:33N 67°00' E 013°41'1413.6
2014-Dec-10 00:33N 67°11' E 014°04'1414.0
2014-Dec-09 23:33N 67°22' E 014°25'1312.8
2014-Dec-09 22:33N 67°35' E 014°18'  
Track history (hours):
 
Tides and Currents Weather Stations Pressure Air Temp Water Temp Dewpoint Dewpoint Depression Visibility Wind Speed Wind Dir Waves Ship Positions

Svartfoss

Last reported at 2014-Dec-19 15:34 UTC. Time now 2014-Dec-19 20:19 UTC.
Position N 59°26' E 005°14'.

Length 80 m; draft 5.3 m.

Type: Cargo ship. MMSI: 304882000.

Date/timePositionNaut miles runAvg speedWind from/ knotsBaromVisibWave heightAir tempDewpointWater temp
2014-Dec-19 15:34N 59°26' E 005°14'6 6.3
2014-Dec-19 14:33N 59°20' E 005°18'6 5.7
2014-Dec-19 13:33N 59°15' E 005°20'1010.2
2014-Dec-19 12:33N 59°06' E 005°31'9 9.5
2014-Dec-19 11:34N 58°59' E 005°44'0 0.0
2014-Dec-19 10:34N 58°59' E 005°44'0 0.0
2014-Dec-19 09:34N 58°59' E 005°44'1 1.3
2014-Dec-19 08:33N 59°00' E 005°42'5 4.9
2014-Dec-19 07:33N 58°55' E 005°44'0 0.1
2014-Dec-19 06:34N 58°55' E 005°44'0 0.0
2014-Dec-19 05:34N 58°55' E 005°44'0 0.0
2014-Dec-19 04:34N 58°55' E 005°44'0 0.0
2014-Dec-19 03:34N 58°55' E 005°44'0 0.0
2014-Dec-19 02:34N 58°55' E 005°44'0 0.0
2014-Dec-19 01:34N 58°55' E 005°44'0 0.1
2014-Dec-19 00:34N 58°55' E 005°44'1 1.3
2014-Dec-18 23:34N 58°57' E 005°45'0 0.0
2014-Dec-18 22:34N 58°57' E 005°45'2 2.0
2014-Dec-18 21:33N 58°58' E 005°48'1010.5
2014-Dec-18 20:33N 58°60' E 005°28'1515.2
2014-Dec-18 19:33N 58°54' E 005°00'22115.4
2014-Dec-18 05:13N 57°33' W 001°30'914.1
2014-Dec-18 04:33N 57°30' W 001°47'0 0.2
2014-Dec-18 03:33N 57°30' W 001°47'0 0.0
2014-Dec-18 02:33N 57°30' W 001°47'0 0.0
2014-Dec-18 01:33N 57°30' W 001°47'3 3.4
2014-Dec-18 00:34N 57°27' W 001°45'2110.6
2014-Dec-17 22:33N 57°09' W 002°05'0 0.0
2014-Dec-17 21:33N 57°09' W 002°05'0 0.0
2014-Dec-17 20:33N 57°09' W 002°05'0 0.0
2014-Dec-17 19:34N 57°09' W 002°05'0 0.0
2014-Dec-17 18:33N 57°09' W 002°05'0 0.0
2014-Dec-17 17:33N 57°09' W 002°05'14212.9
2014-Dec-17 06:33N 54°57' W 000°30'1514.7
2014-Dec-17 05:32N 54°43' W 000°20'1515.0
2014-Dec-17 04:33N 54°29' W 000°10'1515.1
2014-Dec-17 03:34N 54°15' W 000°01'1515.1
2014-Dec-17 02:34N 54°01' E 000°08'1514.6
2014-Dec-17 01:33N 53°47' E 000°17'1312.8
2014-Dec-17 00:34N 53°35' E 000°18'1211.6
2014-Dec-16 23:33N 53°35' W 000°02'2 1.8
2014-Dec-16 22:33N 53°35' W 000°04'0 0.0
2014-Dec-16 21:33N 53°35' W 000°04'0 0.0
2014-Dec-16 20:33N 53°35' W 000°04'0 0.0
2014-Dec-16 19:33N 53°35' W 000°04'0 0.0
2014-Dec-16 18:33N 53°35' W 000°04'0 0.0
2014-Dec-16 17:33N 53°35' W 000°04'0 0.0
2014-Dec-16 16:33N 53°35' W 000°04'0 0.0
2014-Dec-16 15:33N 53°35' W 000°04'0 0.0
2014-Dec-16 14:33N 53°35' W 000°04'0 0.0
2014-Dec-16 13:33N 53°35' W 000°04'0 0.0
2014-Dec-16 12:33N 53°35' W 000°04'0 0.0
2014-Dec-16 11:33N 53°35' W 000°04'0 0.3
2014-Dec-16 10:33N 53°35' W 000°04'1010.0
2014-Dec-16 09:34N 53°33' E 000°12'8 7.9
2014-Dec-16 08:33N 53°29' E 000°24'5011.3
2014-Dec-16 04:09N 53°10' E 001°40'1412.9
2014-Dec-16 03:04N 53°03' E 002°01'7112.9
2014-Dec-15 21:33N 52°40' E 003°52'1212.0
2014-Dec-15 20:33N 52°33' E 004°08'1212.4
2014-Dec-15 19:33N 52°29' E 004°27'6 5.9
2014-Dec-15 18:33N 52°28' E 004°37'2 1.9
2014-Dec-15 17:31N 52°28' E 004°40'0 0.0
2014-Dec-15 16:31N 52°28' E 004°40'0 0.0
2014-Dec-15 15:31N 52°28' E 004°40'0 0.0
2014-Dec-15 14:31N 52°28' E 004°40'0 0.0
2014-Dec-15 13:31N 52°28' E 004°40'0 0.0
2014-Dec-15 12:31N 52°28' E 004°40'0 0.0
2014-Dec-15 11:31N 52°28' E 004°40'0 0.0
2014-Dec-15 10:28N 52°28' E 004°40'0 0.0
2014-Dec-15 09:33N 52°28' E 004°40'0 0.0
2014-Dec-15 08:33N 52°28' E 004°40'0 0.0
2014-Dec-15 07:33N 52°28' E 004°40'0 0.0
2014-Dec-15 06:33N 52°28' E 004°40'0 0.0
2014-Dec-15 05:33N 52°28' E 004°40'0 0.0
2014-Dec-15 04:33N 52°28' E 004°40'0 0.0
2014-Dec-15 03:33N 52°28' E 004°40'0 0.0
2014-Dec-15 02:33N 52°28' E 004°40'0 0.0
2014-Dec-15 01:33N 52°28' E 004°40'0 0.0
2014-Dec-15 00:33N 52°28' E 004°40'0 0.0
2014-Dec-14 23:33N 52°28' E 004°40'0 0.0
2014-Dec-14 22:33N 52°28' E 004°40'0 0.0
2014-Dec-14 21:33N 52°28' E 004°40'0 0.0
2014-Dec-14 20:33N 52°28' E 004°40'0 0.0
2014-Dec-14 19:33N 52°28' E 004°40'0 0.0
2014-Dec-14 18:33N 52°28' E 004°40'0 0.0
2014-Dec-14 17:33N 52°28' E 004°40'0 0.0
2014-Dec-14 16:33N 52°28' E 004°40'3 2.9
2014-Dec-14 15:33N 52°28' E 004°35'1111.2
2014-Dec-14 14:33N 52°39' E 004°29'1414.2
2014-Dec-14 13:33N 52°53' E 004°30'2612.1
2014-Dec-14 11:23N 53°19' E 004°31'1012.4
2014-Dec-14 10:33N 53°29' E 004°36'3112.8
2014-Dec-14 08:05N 53°59' E 004°51'28513.8
2014-Dec-13 11:23N 58°44' E 005°22'1112.8
2014-Dec-13 10:33N 58°54' E 005°32'1414.0
2014-Dec-13 09:34N 59°07' E 005°26'7 6.5
2014-Dec-13 08:33N 59°14' E 005°27'0 0.0
2014-Dec-13 07:32N 59°14' E 005°27'0 0.0
2014-Dec-13 06:33N 59°14' E 005°27'5 4.0
2014-Dec-13 05:24N 59°17' E 005°20'8 9.5
2014-Dec-13 04:33N 59°25' E 005°16'61 9.4
2014-Dec-12 22:04N 60°25' E 005°01'131 7.0
2014-Dec-12 03:25N 62°30' E 006°23'104 3.7
2014-Dec-10 23:31N 63°36' E 009°19'8013.1
2014-Dec-10 17:25N 64°44' E 010°56'1112.8
2014-Dec-10 16:33N 64°52' E 011°14'0 0.0
2014-Dec-10 15:33N 64°52' E 011°14'1211.6
2014-Dec-10 14:33N 64°59' E 011°35'1513.9
2014-Dec-10 13:29N 65°12' E 011°53'55 7.7
2014-Dec-10 06:19N 66°04' E 012°38'1513.9
2014-Dec-10 05:16N 66°17' E 012°55'1313.7
2014-Dec-10 04:20N 66°29' E 012°59'2812.8
2014-Dec-10 02:12N 66°54' E 013°28'812.4
2014-Dec-10 01:33N 67°00' E 013°41'1413.6
2014-Dec-10 00:33N 67°11' E 014°04'1414.0
2014-Dec-09 23:33N 67°22' E 014°25'1312.8
2014-Dec-09 22:33N 67°35' E 014°18'  

Dump ship's entire track history